createdAt,value
2023-05-16T00:01:30.282Z,101844.84
2023-05-16T00:03:57.974Z,101850.25
2023-05-16T00:06:25.453Z,101856.06
2023-05-16T00:08:52.711Z,101852.06
2023-05-16T00:11:19.778Z,101849.38
2023-05-16T00:13:47.697Z,101856.41
2023-05-16T00:16:15.135Z,101864.56
2023-05-16T00:18:45.559Z,101867.19
2023-05-16T00:21:12.970Z,101861.81
2023-05-16T00:23:40.079Z,101865.47
2023-05-16T00:26:07.374Z,101864.56
2023-05-16T00:28:34.471Z,101865.78
2023-05-16T00:31:01.691Z,101855.38
2023-05-16T00:33:28.835Z,101865.22
2023-05-16T00:35:55.947Z,101855.47
2023-05-16T00:38:23.043Z,101857.00
2023-05-16T00:40:50.168Z,101850.81
2023-05-16T00:43:17.314Z,101866.38
2023-05-16T00:45:45.691Z,101863.84
2023-05-16T00:48:14.278Z,101849.84
2023-05-16T00:50:41.795Z,101850.94
2023-05-16T00:53:08.861Z,101851.66
2023-05-16T00:55:36.287Z,101861.56
2023-05-16T00:58:05.883Z,101853.00
2023-05-16T01:00:33.277Z,101861.91
2023-05-16T01:03:01.062Z,101864.66
2023-05-16T01:05:29.385Z,101857.75
2023-05-16T01:07:56.943Z,101855.59
2023-05-16T01:10:25.615Z,101864.94
2023-05-16T01:13:07.459Z,101866.22
2023-05-16T01:15:48.951Z,101867.66
2023-05-16T01:18:27.525Z,101870.09
2023-05-16T01:21:03.966Z,101875.13
2023-05-16T01:23:49.167Z,101870.31
2023-05-16T01:26:23.245Z,101872.72
2023-05-16T01:28:51.928Z,101868.66
2023-05-16T01:31:19.762Z,101875.41
2023-05-16T01:33:47.148Z,101866.84
2023-05-16T01:36:24.879Z,101856.91
2023-05-16T01:39:19.250Z,101866.47
2023-05-16T01:41:55.586Z,101874.28
2023-05-16T01:44:34.652Z,101864.41
2023-05-16T01:47:11.402Z,101867.75
2023-05-16T01:49:44.830Z,101877.31
2023-05-16T01:52:20.212Z,101868.50
2023-05-16T01:54:53.373Z,101877.69
2023-05-16T01:57:24.470Z,101886.59
2023-05-16T01:59:51.660Z,101883.63
2023-05-16T02:02:19.767Z,101882.00
2023-05-16T02:04:46.883Z,101880.19
2023-05-16T02:07:15.096Z,101883.38
2023-05-16T02:09:42.365Z,101886.91
2023-05-16T02:12:09.482Z,101891.56
2023-05-16T02:14:37.406Z,101886.38
2023-05-16T02:17:04.651Z,101874.19
2023-05-16T02:19:31.817Z,101885.06
2023-05-16T02:21:58.900Z,101888.03
2023-05-16T02:24:26.129Z,101893.94
2023-05-16T02:26:53.406Z,101889.72
2023-05-16T02:29:20.732Z,101900.00
2023-05-16T02:31:48.215Z,101895.25
2023-05-16T02:34:15.859Z,101901.22
2023-05-16T02:36:42.880Z,101901.03
2023-05-16T02:39:10.338Z,101895.31
2023-05-16T02:41:37.546Z,101895.97
2023-05-16T02:44:04.815Z,101898.75
2023-05-16T02:46:34.436Z,101895.91
2023-05-16T02:49:02.181Z,101906.50
2023-05-16T02:51:29.441Z,101904.66
2023-05-16T02:54:02.162Z,101898.50
2023-05-16T02:56:29.295Z,101891.47
2023-05-16T02:58:56.488Z,101905.84
2023-05-16T03:01:24.143Z,101911.09
2023-05-16T03:03:51.560Z,101909.06
2023-05-16T03:06:18.813Z,101909.19
2023-05-16T03:08:45.890Z,101913.19
2023-05-16T03:11:13.317Z,101913.53
2023-05-16T03:13:40.573Z,101910.06
2023-05-16T03:16:07.787Z,101917.00
2023-05-16T03:18:35.000Z,101903.97
2023-05-16T03:21:03.094Z,101914.81
2023-05-16T03:23:30.368Z,101918.91
2023-05-16T03:25:57.487Z,101911.50
2023-05-16T03:28:25.320Z,101917.09
2023-05-16T03:30:52.740Z,101928.78
2023-05-16T03:33:19.821Z,101919.81
2023-05-16T03:35:47.114Z,101916.56
2023-05-16T03:38:14.448Z,101921.19
2023-05-16T03:40:41.606Z,101928.84
2023-05-16T03:43:08.939Z,101931.22
2023-05-16T03:45:36.217Z,101931.44
2023-05-16T03:48:03.388Z,101935.16
2023-05-16T03:50:30.564Z,101939.13
2023-05-16T03:52:57.641Z,101937.56
2023-05-16T03:55:25.206Z,101944.19
2023-05-16T03:57:53.150Z,101944.88
2023-05-16T04:00:20.641Z,101940.47
2023-05-16T04:02:48.090Z,101937.28
2023-05-16T04:05:15.683Z,101942.63
2023-05-16T04:07:42.882Z,101949.34
2023-05-16T04:10:10.622Z,101945.94
2023-05-16T04:12:37.818Z,101946.97
2023-05-16T04:15:07.308Z,101951.25
2023-05-16T04:17:34.759Z,101954.81
2023-05-16T04:20:04.315Z,101952.13
2023-05-16T04:22:31.751Z,101944.47
2023-05-16T04:24:58.924Z,101951.38
2023-05-16T04:27:27.261Z,101962.59
2023-05-16T04:29:54.414Z,101960.22
2023-05-16T04:32:21.689Z,101960.22
2023-05-16T04:34:50.117Z,101967.16
2023-05-16T04:37:17.905Z,101968.03
2023-05-16T04:39:45.134Z,101959.75
2023-05-16T04:42:12.223Z,101965.94
2023-05-16T04:44:39.294Z,101964.78
2023-05-16T04:47:07.327Z,101977.88
2023-05-16T04:49:34.465Z,101972.13
2023-05-16T04:52:02.663Z,101973.47
2023-05-16T04:54:29.741Z,101979.53
2023-05-16T04:56:57.301Z,101970.34
2023-05-16T04:59:24.485Z,101984.66
2023-05-16T05:01:51.707Z,101980.78
2023-05-16T05:04:18.810Z,101982.28
2023-05-16T05:06:45.918Z,101986.84
2023-05-16T05:09:13.336Z,101989.44
2023-05-16T05:11:40.448Z,101990.00
2023-05-16T05:14:07.517Z,101985.81
2023-05-16T05:16:34.881Z,101981.72
2023-05-16T05:19:02.852Z,101986.31
2023-05-16T05:21:30.757Z,101989.47
2023-05-16T05:23:57.908Z,102002.63
2023-05-16T05:26:26.342Z,101992.88
2023-05-16T05:29:04.515Z,101995.34
2023-05-16T05:31:34.951Z,101996.91
2023-05-16T05:34:03.303Z,102003.09
2023-05-16T05:36:31.101Z,102013.06
2023-05-16T05:38:58.318Z,102018.16
2023-05-16T05:41:26.385Z,102010.84
2023-05-16T05:43:53.541Z,102003.16
2023-05-16T05:46:20.868Z,102013.16
2023-05-16T05:48:48.508Z,102016.94
2023-05-16T05:51:15.777Z,102010.91
2023-05-16T05:53:42.951Z,102017.28
2023-05-16T05:56:10.148Z,102020.97
2023-05-16T05:58:39.528Z,102023.69
2023-05-16T06:01:07.164Z,102026.41
2023-05-16T06:03:34.321Z,102033.22
2023-05-16T06:06:01.758Z,102025.31
2023-05-16T06:08:28.915Z,102044.66
2023-05-16T06:10:56.012Z,102035.94
2023-05-16T06:13:23.066Z,102043.00
2023-05-16T06:15:51.810Z,102050.25
2023-05-16T06:18:19.073Z,102043.09
2023-05-16T06:20:46.271Z,102040.91
2023-05-16T06:23:13.733Z,102044.84
2023-05-16T06:25:40.807Z,102052.34
2023-05-16T06:28:08.103Z,102061.63
2023-05-16T06:30:35.209Z,102046.81
2023-05-16T06:33:02.786Z,102051.09
2023-05-16T06:35:30.081Z,102065.56
2023-05-16T06:37:57.321Z,102060.97
2023-05-16T06:40:24.792Z,102059.13
2023-05-16T06:42:51.950Z,102057.06
2023-05-16T06:45:19.145Z,102057.81
2023-05-16T06:47:46.353Z,102056.44
2023-05-16T06:50:14.252Z,102059.56
2023-05-16T06:52:42.220Z,102048.41
2023-05-16T06:55:09.917Z,102057.53
2023-05-16T06:57:37.587Z,102066.97
2023-05-16T07:00:05.328Z,102068.91
2023-05-16T07:02:32.511Z,102061.31
2023-05-16T07:05:02.839Z,102072.22
2023-05-16T07:07:30.002Z,102067.53
2023-05-16T07:09:57.336Z,102064.75
2023-05-16T07:12:24.459Z,102065.41
2023-05-16T07:14:51.608Z,102072.41
2023-05-16T07:17:18.816Z,102076.75
2023-05-16T07:19:46.151Z,102074.00
2023-05-16T07:22:13.386Z,102072.16
2023-05-16T07:24:40.550Z,102064.41
2023-05-16T07:27:08.025Z,102085.66
2023-05-16T07:29:37.581Z,102081.97
2023-05-16T07:32:05.208Z,102089.63
2023-05-16T07:34:32.715Z,102080.56
2023-05-16T07:36:59.834Z,102070.34
2023-05-16T07:39:26.950Z,102073.28
2023-05-16T07:41:54.085Z,102068.56
2023-05-16T07:44:21.211Z,102085.84
2023-05-16T07:46:48.399Z,102082.06
2023-05-16T07:49:15.707Z,102084.75
2023-05-16T07:51:42.908Z,102085.19
2023-05-16T07:54:10.108Z,102092.84
2023-05-16T07:56:37.834Z,102106.47
2023-05-16T07:59:06.453Z,102106.41
2023-05-16T08:01:33.838Z,102116.88
2023-05-16T08:04:01.380Z,102106.91
2023-05-16T08:06:29.716Z,102104.00
2023-05-16T08:08:56.934Z,102104.66
2023-05-16T08:11:24.145Z,102100.94
2023-05-16T08:13:51.461Z,102096.41
2023-05-16T08:16:18.903Z,102092.22
2023-05-16T08:18:46.206Z,102090.44
2023-05-16T08:21:14.331Z,102083.41
2023-05-16T08:23:41.509Z,102084.91
2023-05-16T08:26:08.608Z,102089.84
2023-05-16T08:28:36.713Z,102085.25
2023-05-16T08:31:03.909Z,102088.28
2023-05-16T08:33:31.231Z,102090.06
2023-05-16T08:36:01.496Z,102085.06
2023-05-16T08:38:28.808Z,102085.13
2023-05-16T08:40:56.275Z,102079.28
2023-05-16T08:43:23.792Z,102061.63
2023-05-16T08:45:50.940Z,102083.81
2023-05-16T08:48:23.061Z,102084.00
2023-05-16T08:50:50.501Z,102090.97
2023-05-16T08:53:22.470Z,102086.84
2023-05-16T08:55:51.475Z,102091.19
2023-05-16T08:58:20.238Z,102091.16
2023-05-16T09:00:48.368Z,102093.13
2023-05-16T09:03:16.559Z,102094.94
2023-05-16T09:05:43.923Z,102080.28
2023-05-16T09:08:11.469Z,102085.91
2023-05-16T09:10:38.935Z,102092.53
2023-05-16T09:13:06.724Z,102098.81
2023-05-16T09:15:34.351Z,102106.13
2023-05-16T09:18:03.066Z,102108.66
2023-05-16T09:20:31.348Z,102109.84
2023-05-16T09:22:59.657Z,102101.53
2023-05-16T09:25:31.775Z,102105.06
2023-05-16T09:28:03.541Z,102102.91
2023-05-16T09:30:33.754Z,102111.91
2023-05-16T09:33:01.591Z,102095.31
2023-05-16T09:37:58.934Z,102092.81
2023-05-16T09:40:26.192Z,102099.47
2023-05-16T09:43:07.870Z,102096.63
2023-05-16T09:45:37.193Z,102104.69
2023-05-16T09:48:06.757Z,102115.41
2023-05-16T09:50:36.577Z,102098.59
2023-05-16T09:53:04.793Z,102117.78
2023-05-16T09:55:32.551Z,102125.56
2023-05-16T09:57:59.839Z,102106.81
2023-05-16T10:00:34.010Z,102109.44
2023-05-16T10:03:05.110Z,102098.28
2023-05-16T10:05:34.896Z,102110.13
2023-05-16T10:08:04.235Z,102103.66
2023-05-16T10:10:38.810Z,102112.63
2023-05-16T10:13:08.467Z,102119.97
2023-05-16T10:15:38.353Z,102109.16
2023-05-16T10:18:12.196Z,102110.50
2023-05-16T10:20:42.844Z,102120.22
2023-05-16T10:23:19.672Z,102113.47
2023-05-16T10:25:49.949Z,102127.28
2023-05-16T10:28:17.910Z,102116.53
2023-05-16T10:30:47.192Z,102104.63
2023-05-16T10:33:16.850Z,102107.81
2023-05-16T10:35:46.966Z,102109.88
2023-05-16T10:38:18.313Z,102105.66
2023-05-16T10:40:47.155Z,102101.66
2023-05-16T10:43:25.011Z,102102.06
2023-05-16T10:45:57.327Z,102099.38
2023-05-16T10:48:39.444Z,102109.72
2023-05-16T10:51:32.444Z,102108.13
2023-05-16T10:54:09.226Z,102114.78
2023-05-16T10:56:37.742Z,102118.66
2023-05-16T10:59:05.029Z,102113.13
2023-05-16T11:01:35.460Z,102109.34
2023-05-16T11:04:08.390Z,102102.34
2023-05-16T11:06:41.323Z,102098.53
2023-05-16T11:09:22.236Z,102104.00
2023-05-16T11:11:51.987Z,102108.53
2023-05-16T11:14:25.694Z,102119.91
2023-05-16T11:17:12.428Z,102110.72
2023-05-16T11:19:47.373Z,102112.22
2023-05-16T11:22:23.113Z,102111.00
2023-05-16T11:24:59.185Z,102103.81
2023-05-16T11:27:27.900Z,102103.47
2023-05-16T11:30:01.054Z,102117.50
2023-05-16T11:32:30.768Z,102106.56
2023-05-16T11:34:58.503Z,102111.25
2023-05-16T11:37:26.232Z,102118.22
2023-05-16T11:39:53.860Z,102120.84
2023-05-16T11:42:21.234Z,102124.84
2023-05-16T11:44:48.898Z,102126.66
2023-05-16T11:47:16.071Z,102117.63
2023-05-16T11:49:43.291Z,102114.31
2023-05-16T11:52:10.609Z,102142.69
2023-05-16T11:54:38.409Z,102140.56
2023-05-16T11:57:06.545Z,102140.72
2023-05-16T11:59:33.732Z,102122.31
2023-05-16T12:02:04.576Z,102142.47
2023-05-16T12:04:31.955Z,102127.94
2023-05-16T12:07:01.488Z,102135.84
2023-05-16T12:09:28.849Z,102145.66
2023-05-16T12:11:56.288Z,102133.94
2023-05-16T12:14:24.239Z,102130.44
2023-05-16T12:16:52.945Z,102137.69
2023-05-16T12:19:21.101Z,102135.28
2023-05-16T12:21:51.888Z,102144.88
2023-05-16T12:24:19.129Z,102143.34
2023-05-16T12:26:47.041Z,102144.47
2023-05-16T12:29:14.227Z,102144.66
2023-05-16T12:31:41.854Z,102149.66
2023-05-16T12:34:19.128Z,102140.44
2023-05-16T12:36:51.719Z,102140.47
2023-05-16T12:39:19.738Z,102135.13
2023-05-16T12:41:47.186Z,102140.63
2023-05-16T12:44:18.230Z,102131.28
2023-05-16T12:46:52.633Z,102140.53
2023-05-16T12:49:23.190Z,102140.81
2023-05-16T12:51:55.807Z,102132.00
2023-05-16T12:54:23.333Z,102134.66
2023-05-16T12:56:51.051Z,102129.06
2023-05-16T12:59:20.299Z,102131.34
2023-05-16T13:01:48.280Z,102134.41
2023-05-16T13:04:19.083Z,102131.47
2023-05-16T13:06:58.662Z,102133.78
2023-05-16T13:09:29.932Z,102138.34
2023-05-16T13:11:59.821Z,102131.78
2023-05-16T13:14:27.262Z,102137.56
2023-05-16T13:16:54.422Z,102139.47
2023-05-16T13:19:23.195Z,102131.28
2023-05-16T13:21:50.429Z,102138.63
2023-05-16T13:24:19.204Z,102140.91
2023-05-16T13:26:47.022Z,102141.28
2023-05-16T13:29:14.879Z,102135.97
2023-05-16T13:31:42.138Z,102143.34
2023-05-16T13:34:10.335Z,102139.47
2023-05-16T13:36:52.203Z,102146.81
2023-05-16T13:39:20.744Z,102152.06
2023-05-16T13:41:49.111Z,102137.91
2023-05-16T13:44:17.206Z,102142.38
2023-05-16T13:46:44.894Z,102138.84
2023-05-16T13:49:12.183Z,102140.50
2023-05-16T13:51:39.433Z,102131.91
2023-05-16T13:54:06.767Z,102134.56
2023-05-16T13:56:33.872Z,102141.28
2023-05-16T13:59:05.820Z,102120.41
2023-05-16T14:01:34.300Z,102135.25
2023-05-16T14:04:01.784Z,102143.66
2023-05-16T14:06:29.085Z,102147.00
2023-05-16T14:08:56.230Z,102143.19
2023-05-16T14:11:28.822Z,102138.22
2023-05-16T14:13:57.493Z,102140.41
2023-05-16T14:16:24.923Z,102146.81
2023-05-16T14:18:52.160Z,102143.88
2023-05-16T14:21:19.763Z,102143.94
2023-05-16T14:23:47.227Z,102142.06
2023-05-16T14:26:15.309Z,102152.66
2023-05-16T14:28:42.430Z,102146.19
2023-05-16T14:31:09.607Z,102144.59
2023-05-16T14:33:36.865Z,102150.72
2023-05-16T14:36:05.251Z,102145.66
2023-05-16T14:38:34.187Z,102149.00
2023-05-16T14:41:01.673Z,102156.97
2023-05-16T14:43:28.819Z,102155.22
2023-05-16T14:45:55.962Z,102146.59
2023-05-16T14:48:23.323Z,102150.56
2023-05-16T14:50:51.470Z,102154.34
2023-05-16T14:53:18.766Z,102162.72
2023-05-16T14:55:45.995Z,102171.34
2023-05-16T14:58:13.173Z,102160.97
2023-05-16T15:00:40.420Z,102153.78
2023-05-16T15:03:08.061Z,102158.50
2023-05-16T15:05:36.175Z,102147.41
2023-05-16T15:08:03.409Z,102155.50
2023-05-16T15:10:30.585Z,102155.78
2023-05-16T15:12:57.888Z,102157.47
2023-05-16T15:15:25.087Z,102162.13
2023-05-16T15:17:53.833Z,102154.88
2023-05-16T15:20:22.592Z,102150.94
2023-05-16T15:22:50.132Z,102154.13
2023-05-16T15:25:17.433Z,102153.13
2023-05-16T15:27:44.568Z,102167.28
2023-05-16T15:30:12.260Z,102166.47
2023-05-16T15:32:39.424Z,102163.19
2023-05-16T15:35:07.808Z,102159.63
2023-05-16T15:37:35.123Z,102164.75
2023-05-16T15:40:04.746Z,102164.69
2023-05-16T15:42:31.913Z,102167.84
2023-05-16T15:44:59.121Z,102163.53
2023-05-16T15:47:26.275Z,102170.16
2023-05-16T15:49:53.474Z,102174.16
2023-05-16T15:52:22.519Z,102168.81
2023-05-16T15:54:51.329Z,102177.56
2023-05-16T15:57:19.219Z,102171.75
2023-05-16T15:59:46.494Z,102181.38
2023-05-16T16:02:14.066Z,102180.19
2023-05-16T16:04:41.361Z,102182.13
2023-05-16T16:07:08.593Z,102171.94
2023-05-16T16:09:35.988Z,102185.84
2023-05-16T16:12:03.140Z,102188.44
2023-05-16T16:14:30.340Z,102185.00
2023-05-16T16:16:57.523Z,102175.31
2023-05-16T16:19:26.785Z,102189.66
2023-05-16T16:21:53.993Z,102187.06
2023-05-16T16:24:21.296Z,102185.16
2023-05-16T16:26:48.472Z,102187.75
2023-05-16T16:29:15.887Z,102179.13
2023-05-16T16:31:43.042Z,102170.56
2023-05-16T16:34:10.262Z,102168.75
2023-05-16T16:36:37.694Z,102170.63
2023-05-16T16:39:06.183Z,102179.44
2023-05-16T16:41:33.380Z,102183.44
2023-05-16T16:44:00.516Z,102191.16
2023-05-16T16:46:27.909Z,102184.72
2023-05-16T16:48:55.333Z,102192.06
2023-05-16T16:51:22.470Z,102194.88
2023-05-16T16:53:49.632Z,102192.72
2023-05-16T16:56:16.837Z,102201.94
2023-05-16T16:58:43.966Z,102203.19
2023-05-16T17:01:12.911Z,102197.78
2023-05-16T17:03:40.454Z,102203.09
2023-05-16T17:06:07.922Z,102199.06
2023-05-16T17:08:35.065Z,102199.53
2023-05-16T17:11:05.334Z,102211.97
2023-05-16T17:13:34.055Z,102212.81
2023-05-16T17:16:01.528Z,102211.22
2023-05-16T17:18:28.712Z,102210.22
2023-05-16T17:20:56.222Z,102214.78
2023-05-16T17:23:23.322Z,102208.75
2023-05-16T17:25:50.541Z,102211.72
2023-05-16T17:28:18.125Z,102217.03
2023-05-16T17:30:45.501Z,102216.19
2023-05-16T17:33:12.650Z,102220.50
2023-05-16T17:35:41.018Z,102228.28
2023-05-16T17:38:10.224Z,102214.31
2023-05-16T17:40:37.518Z,102221.91
2023-05-16T17:43:05.652Z,102221.91
2023-05-16T17:45:33.601Z,102228.72
2023-05-16T17:48:00.869Z,102235.34
2023-05-16T17:50:29.628Z,102224.81
2023-05-16T17:52:56.835Z,102225.69
2023-05-16T17:55:24.712Z,102225.56
2023-05-16T17:57:51.818Z,102228.53
2023-05-16T18:00:19.506Z,102241.38
2023-05-16T18:02:47.049Z,102226.06
2023-05-16T18:05:16.544Z,102246.31
2023-05-16T18:07:44.001Z,102243.38
2023-05-16T18:10:11.510Z,102245.50
2023-05-16T18:12:38.992Z,102249.16
2023-05-16T18:15:07.258Z,102251.66
2023-05-16T18:17:34.637Z,102262.44
2023-05-16T18:20:09.581Z,102264.47
2023-05-16T18:22:38.563Z,102258.00
2023-05-16T18:25:07.549Z,102263.41
2023-05-16T18:27:38.033Z,102265.59
2023-05-16T18:30:06.304Z,102259.59
2023-05-16T18:32:34.064Z,102260.53
2023-05-16T18:35:01.540Z,102264.56
2023-05-16T18:37:28.785Z,102268.16
2023-05-16T18:39:55.934Z,102269.94
2023-05-16T18:42:25.672Z,102270.81
2023-05-16T18:44:53.143Z,102267.34
2023-05-16T18:47:20.956Z,102265.06
2023-05-16T18:49:48.294Z,102271.91
2023-05-16T18:52:15.483Z,102271.81
2023-05-16T18:54:42.664Z,102272.81
2023-05-16T18:57:09.889Z,102265.31
2023-05-16T18:59:37.565Z,102279.41
2023-05-16T19:02:04.850Z,102279.22
2023-05-16T19:04:32.051Z,102276.56
2023-05-16T19:07:00.014Z,102278.22
2023-05-16T19:09:28.666Z,102281.63
2023-05-16T19:11:56.609Z,102284.78
2023-05-16T19:14:23.821Z,102290.69
2023-05-16T19:16:51.123Z,102296.47
2023-05-16T19:19:18.561Z,102297.28
2023-05-16T19:21:47.122Z,102297.75
2023-05-16T19:24:14.525Z,102299.31
2023-05-16T19:26:41.732Z,102294.50
2023-05-16T19:29:10.768Z,102306.75
2023-05-16T19:31:37.937Z,102307.22
2023-05-16T19:34:05.785Z,102309.75
2023-05-16T19:36:33.864Z,102304.03
2023-05-16T19:39:01.448Z,102312.44
2023-05-16T19:41:28.565Z,102312.19
2023-05-16T19:43:55.788Z,102297.28
2023-05-16T19:46:23.523Z,102316.44
2023-05-16T19:48:51.040Z,102318.09
2023-05-16T19:51:29.548Z,102316.81
2023-05-16T19:54:04.767Z,102314.81
2023-05-16T19:56:32.072Z,102321.56
2023-05-16T19:58:59.180Z,102324.88
2023-05-16T20:01:26.751Z,102320.44
2023-05-16T20:03:53.871Z,102320.31
2023-05-16T20:06:21.006Z,102315.94
2023-05-16T20:08:48.322Z,102316.13
2023-05-16T20:11:15.568Z,102320.56
2023-05-16T20:13:42.672Z,102316.84
2023-05-16T20:16:10.825Z,102314.25
2023-05-16T20:18:38.033Z,102324.16
2023-05-16T20:21:05.344Z,102324.28
2023-05-16T20:23:32.444Z,102323.28
2023-05-16T20:25:59.493Z,102325.72
2023-05-16T20:28:26.843Z,102328.06
2023-05-16T20:30:54.012Z,102320.63
2023-05-16T20:33:21.297Z,102322.38
2023-05-16T20:35:48.606Z,102336.19
2023-05-16T20:38:17.194Z,102335.16
2023-05-16T20:40:44.369Z,102333.81
2023-05-16T20:43:11.520Z,102337.47
2023-05-16T20:45:38.684Z,102324.22
2023-05-16T20:48:06.472Z,102339.97
2023-05-16T20:50:38.602Z,102354.34
2023-05-16T20:53:06.308Z,102341.84
2023-05-16T20:55:33.427Z,102346.25
2023-05-16T20:58:00.815Z,102331.09
2023-05-16T21:00:27.977Z,102352.78
2023-05-16T21:02:55.292Z,102351.66
2023-05-16T21:05:25.624Z,102352.63
2023-05-16T21:08:02.556Z,102346.38
2023-05-16T21:10:29.912Z,102349.72
2023-05-16T21:12:56.994Z,102352.09
2023-05-16T21:15:24.163Z,102354.81
2023-05-16T21:17:51.559Z,102356.31
2023-05-16T21:20:18.814Z,102338.72
2023-05-16T21:22:45.966Z,102358.50
2023-05-16T21:25:13.114Z,102357.22
2023-05-16T21:27:40.246Z,102353.44
2023-05-16T21:30:08.435Z,102367.22
2023-05-16T21:32:37.708Z,102366.88
2023-05-16T21:35:07.487Z,102367.03
2023-05-16T21:37:34.698Z,102364.97
2023-05-16T21:40:01.916Z,102368.44
2023-05-16T21:42:29.178Z,102370.97
2023-05-16T21:44:56.300Z,102370.81
2023-05-16T21:47:23.505Z,102378.44
2023-05-16T21:49:51.089Z,102379.25
2023-05-16T21:52:18.529Z,102376.44
2023-05-16T21:54:51.364Z,102369.50
2023-05-16T21:57:19.653Z,102385.66
2023-05-16T21:59:50.223Z,102378.81
2023-05-16T22:02:22.702Z,102383.59
2023-05-16T22:04:53.237Z,102380.75
2023-05-16T22:07:20.474Z,102382.59
2023-05-16T22:09:53.541Z,102391.03
2023-05-16T22:12:20.903Z,102384.94
2023-05-16T22:14:49.219Z,102391.66
2023-05-16T22:17:19.850Z,102385.41
2023-05-16T22:19:47.312Z,102387.88
2023-05-16T22:22:14.531Z,102377.44
2023-05-16T22:24:42.058Z,102378.63
2023-05-16T22:27:09.159Z,102378.41
2023-05-16T22:29:39.349Z,102381.63
2023-05-16T22:32:10.401Z,102379.72
2023-05-16T22:34:40.799Z,102385.63
2023-05-16T22:37:09.372Z,102386.38
2023-05-16T22:39:37.311Z,102384.66
2023-05-16T22:42:05.004Z,102391.44
2023-05-16T22:44:32.178Z,102384.22
2023-05-16T22:46:59.567Z,102387.81
2023-05-16T22:49:26.688Z,102391.31
2023-05-16T22:51:53.845Z,102397.22
2023-05-16T22:54:20.934Z,102395.44
2023-05-16T22:56:48.399Z,102392.41
2023-05-16T22:59:15.646Z,102406.97
2023-05-16T23:01:43.064Z,102402.66
2023-05-16T23:04:10.305Z,102394.91
2023-05-16T23:06:37.690Z,102404.56
2023-05-16T23:09:04.801Z,102393.44
2023-05-16T23:11:33.015Z,102399.84
2023-05-16T23:14:00.162Z,102395.56
2023-05-16T23:16:27.374Z,102403.47
2023-05-16T23:18:54.665Z,102402.41
2023-05-16T23:21:21.861Z,102398.94
2023-05-16T23:23:49.021Z,102403.00
2023-05-16T23:26:16.134Z,102401.03
2023-05-16T23:28:43.330Z,102408.78
2023-05-16T23:31:10.444Z,102409.47
2023-05-16T23:33:38.024Z,102409.63
2023-05-16T23:36:06.146Z,102412.03
2023-05-16T23:38:33.473Z,102408.72
2023-05-16T23:41:00.574Z,102414.69
2023-05-16T23:43:27.706Z,102412.03
2023-05-16T23:45:54.878Z,102401.53
2023-05-16T23:48:22.058Z,102398.03
2023-05-16T23:50:49.292Z,102404.78
2023-05-16T23:53:17.073Z,102404.72
2023-05-16T23:55:44.328Z,102417.22
2023-05-16T23:58:11.476Z,102426.38
